Aérodrome :
LOGIN :

S'inscrire | Disclaimer

   EN    FR    IT 

 










Légende :    VFR   VFR Marginal   IFR   IFR Intensif   IFR Très Intensif
Visi : 
Plafond : 
>= 8 km
>= 3000ft
5 à 8 km
1000 à 3000 ft
1500m à 5 km
500 à 1000 ft
800 à 1500m
200 à 500 ft
< 800m
< 200 ft
Symboles :   Orages  Brouillard  Fortes neiges  Fortes précipitations  Vent > 20 kt
SIGMETs :   Divers  Orages  Givrage  Turbulence  Onde Orograph.  Cendres Volcan.







- Altitude de l'aérodrome : 1300 ft
- Code IATA : LIG
- Voir les cartes d'approche


LFBL - Limoges

DERNIER METAR :
  • 230230Z AUTO 19005KT 9999 BKN049 13/12 Q1020 TEMPO BKN009

METARs EXPIRÉS :
  • 230200Z AUTO 22004KT CAVOK 13/12 Q1020 NOSIG
  • 230130Z AUTO 22004KT 9999 FEW019 BKN050 13/12 Q1020 NOSIG
  • 230100Z AUTO 23004KT 9999 SCT021 13/12 Q1020 NOSIG
  • 230030Z AUTO 24005KT 210V270 9999 FEW043 SCT050 14/12 Q1020 NOSIG
  • 230000Z AUTO 23007KT 9999 BKN023 BKN029 BKN034 14/12 Q1020 NOSIG
  • 222330Z AUTO 22004KT 9999 BKN024 OVC032 14/13 Q1020 NOSIG

TAF TAF LFBL
Valide du 23 à 00h jusqu'au 24 à 00h UTC


222300Z 2300/2324 24009KT 9999 BKN023
PROB40
TEMPO 2304/2310 -RA BKN009
BECMG 2311/2313 SCT030
BECMG 2321/2323 BKN010 BKN025
TEMPO 2322/2324 4000 -RA BKN005
ATIS : +33 5 55 48 40 37
Pas de NOTAMs connus pour ce terrain.



MET'MAP, la Météo Aéronautique d'un coup d'oeil ! - Copyright ORBIFLY Décembre 2007 - Disclaimer

ORBIFLY MET'MAP TEAM :

Programmation & Développement : Alexandra Zaïnal
Conception & Développement : Baudouin d'Aumeries
Co-Programmation & Développement : Marc-Olivier Méhu
Soutien technique & logistique : Manuel Goepfert

Contact : metmap@orbifly.com




SOURCES & CREDITS :

   NOAA